메인 페이지
METAR-TAF:

METAR-TAF

공항 :

루사카, 잠비아

루사카 국제공항

위도: 15-19-51S, 경도: 028-27-09E, 고도: 1152m

현재 날씨관측

예보는 40분 전, 09:00시(UTC)에 발표되었습니다.
동북동11kt
온도 25°C
습도 54%
기압 1018 hPa
시정 10km 이상
고도 2500ft 상공 구름 많음

METAR: FLKK 180900Z 07011KT 9999 BKN025 25/15 Q1018

시각: 11:40 (09:40 UTC)

예보

예보는 23 시간 40분 전, 10:00시(UTC)에 발표되었습니다.
예보 대상 시간: 16일 12시부터 17일 18시까지 (UTC)
5kt
시정 10km 이상
고도 3000ft 상공 구름 많음
확률 40% :
일시적
16일 12시부터 16일 14시까지 (UTC)
시정: 8000m
구름 조금 , 적란운.
고도 4000ft 상공 구름 많음
뇌우, 비
확률 30% :
일시적
17일 00시부터 17일 01시까지 (UTC)
10kt
시정: 8000m
고도 2000ft 상공 구름 많음
약한비
전환 중
17일 12시부터 17일 14시까지 (UTC)
시정: 9000m
구름 조금 , 적란운.
고도 3000ft 상공 구름 많음
뇌우, 비

TAF: FLKK 161000Z 1612/1718 09005KT 9999 BKN030 PROB40 TEMPO 1612/1614 8000 TSRA FEW///CB BKN040 PROB30 TEMPO 1700/1701 08010KT 8000 -RA BKN020 BECMG 1712/1714 9000 TSRA FEW///CB BKN030

4,000개 이상의 공항 관측 자료 및 예보 (METAR 및 TAF 보고).

지도상에서 검색 가능한 기상관측소가 노란 점과 빨간 점으로 표시되어 있습니다.

기상관측소 명을 보려면 표시 위로 마우스를 이동하세요.

날씨 관측과 예보를 보려면 클릭하세요.

지도 변경 : 확대하려면 엑스 표시가 있는 녹색 버튼, 축소하려면 빼기 표시가 있는 녹색 버튼, 다음 페이지의 지도를 보려면 녹색 화살표를 클릭하세요.


METAR-TAF: